Time;durP1;ratioP1;P1;durP2;ratioP2;P2;SDS_P1;SDS_P2;PMS_P1;PMS_P2;Temp;Humidity;BMP_temperature;BMP_pressure;BME280_temperature;BME280_humidity;BME280_pressure;Samples;Min_cycle;Max_cycle;Signal;HPM_P1;HPM_P2
2022/05/14 00:01:20;;;;;;;25.73;4.25;;;12.40;99.90;;;;;;5004689;28;20029;-81
2022/05/14 00:03:47;;;;;;;14.80;3.97;;;13.90;99.90;;;;;;5039181;28;20498;-81
2022/05/14 00:06:15;;;;;;;21.02;3.78;;;12.70;99.90;;;;;;5029397;28;20091;-83
2022/05/14 00:08:41;;;;;;;22.05;5.50;;;12.70;99.90;;;;;;5008158;28;20457;-80
2022/05/14 00:13:52;;;;;;;;;;;12.60;99.90;;;;;;5025581;28;20060;-79
2022/05/14 00:16:19;;;;;;;22.00;4.35;;;12.60;99.90;;;;;;5021128;28;19920;-82
2022/05/14 00:18:46;;;;;;;25.55;5.10;;;13.30;99.90;;;;;;5002519;28;20052;-82
2022/05/14 00:21:12;;;;;;;18.50;4.95;;;12.50;99.90;;;;;;5019022;28;20599;-82
2022/05/14 00:23:38;;;;;;;25.70;4.45;;;13.60;99.90;;;;;;5023160;28;20043;-82
2022/05/14 00:26:04;;;;;;;19.45;5.45;;;13.60;99.90;;;;;;5004507;28;20037;-81
2022/05/14 00:28:30;;;;;;;19.30;5.38;;;12.50;99.90;;;;;;5003697;28;20041;-82
2022/05/14 00:30:55;;;;;;;19.42;4.70;;;13.50;99.90;;;;;;5017909;28;20076;-77
2022/05/14 00:33:21;;;;;;;18.92;5.20;;;12.50;99.90;;;;;;5027808;28;20425;-82
2022/05/14 00:35:47;;;;;;;20.58;6.15;;;12.50;99.90;;;;;;5008052;28;20519;-79
2022/05/14 00:38:13;;;;;;;21.70;5.53;;;13.70;99.90;;;;;;5004545;28;20044;-83
2022/05/14 00:40:47;;;;;;;20.65;5.30;;;12.50;99.90;;;;;;5023489;28;20166;-80
2022/05/14 00:43:16;;;;;;;23.40;5.10;;;12.50;99.90;;;;;;5021538;28;20037;-81
2022/05/14 00:45:54;;;;;;;21.30;4.75;;;12.50;99.90;;;;;;5019416;28;20049;-81
2022/05/14 00:48:22;;;;;;;25.10;4.82;;;13.80;99.90;;;;;;5038179;28;20038;-78
2022/05/14 00:50:52;;;;;;;24.20;5.65;;;13.20;99.90;;;;;;5006923;28;20052;-80
2022/05/14 00:53:26;;;;;;;30.02;6.75;;;12.40;99.90;;;;;;5020569;28;20044;-83
2022/05/14 00:55:53;;;;;;;;;;;12.40;99.90;;;;;;5018783;28;20060;-79
2022/05/14 00:58:35;;;;;;;24.92;6.25;;;13.80;99.90;;;;;;5027088;28;19928;-80
2022/05/14 01:01:01;;;;;;;25.50;5.82;;;12.30;99.90;;;;;;5017812;28;20129;-82
2022/05/14 01:03:26;;;;;;;29.70;5.53;;;12.30;99.90;;;;;;5039033;28;20049;-81
2022/05/14 01:05:54;;;;;;;27.75;6.40;;;12.20;99.90;;;;;;5030376;28;20047;-82
2022/05/14 01:08:19;;;;;;;30.40;6.75;;;12.20;99.90;;;;;;5004735;28;20037;-82
2022/05/14 01:10:46;;;;;;;20.52;5.68;;;13.50;99.90;;;;;;5003013;28;20046;-81
2022/05/14 01:13:13;;;;;;;23.88;5.78;;;12.10;99.90;;;;;;5035508;28;20060;-80
2022/05/14 01:15:49;;;;;;;25.42;5.82;;;12.20;99.90;;;;;;5022071;28;20075;-81
2022/05/14 01:18:17;;;;;;;31.33;6.75;;;12.20;99.90;;;;;;5038093;28;20437;-82
2022/05/14 01:20:50;;;;;;;35.58;6.72;;;12.30;99.90;;;;;;5018465;28;20049;-81
2022/05/14 01:26:27;;;;;;;29.77;5.97;;;12.20;99.90;;;;;;5019897;28;20052;-80
2022/05/14 01:28:56;;;;;;;30.75;7.45;;;13.20;99.90;;;;;;5001295;28;20080;-79
2022/05/14 01:31:22;;;;;;;26.95;6.50;;;13.20;99.90;;;;;;5010271;28;20037;-81
2022/05/14 01:33:48;;;;;;;26.42;6.82;;;11.80;99.90;;;;;;5036549;28;20030;-81
2022/05/14 01:36:13;;;;;;;29.20;6.15;;;12.00;99.90;;;;;;5017001;28;20503;-83
2022/05/14 01:38:40;;;;;;;26.17;6.60;;;12.20;99.90;;;;;;5021945;28;20534;-83
2022/05/14 01:41:06;;;;;;;32.38;6.93;;;11.90;99.90;;;;;;5022841;28;20392;-82
2022/05/14 01:43:32;;;;;;;30.25;6.75;;;12.10;99.90;;;;;;5022818;28;20045;-80
2022/05/14 01:45:58;;;;;;;31.73;7.07;;;12.10;99.90;;;;;;5021461;28;20029;-81
2022/05/14 01:48:24;;;;;;;36.95;7.68;;;12.10;99.90;;;;;;5041020;28;20489;-79
2022/05/14 01:50:49;;;;;;;25.15;7.10;;;12.10;99.90;;;;;;5043572;28;20116;-80
2022/05/14 01:53:15;;;;;;;28.98;7.50;;;12.20;99.90;;;;;;5008175;28;20083;-81
2022/05/14 01:55:41;;;;;;;26.65;6.72;;;12.40;99.90;;;;;;5038164;28;20037;-82
2022/05/14 02:00:52;;;;;;;;;;;12.00;99.90;;;;;;5021353;28;20448;-78
2022/05/14 02:03:17;;;;;;;31.35;7.15;;;12.00;99.90;;;;;;5029349;28;19924;-83
2022/05/14 02:05:43;;;;;;;29.38;6.75;;;12.20;99.90;;;;;;5005107;28;20442;-80
2022/05/14 02:08:08;;;;;;;30.27;7.82;;;12.00;99.90;;;;;;5004326;28;20040;-81
2022/05/14 02:10:34;;;;;;;28.45;6.95;;;13.30;99.90;;;;;;5024924;28;20041;-82
2022/05/14 02:13:00;;;;;;;26.60;7.20;;;11.70;99.90;;;;;;5007991;28;20076;-82
2022/05/14 02:15:25;;;;;;;30.27;7.10;;;11.80;99.90;;;;;;5031780;28;20129;-82
2022/05/14 02:17:51;;;;;;;36.67;7.72;;;11.70;99.90;;;;;;5004955;28;20084;-83
2022/05/14 02:20:17;;;;;;;30.33;7.65;;;11.90;99.90;;;;;;5021622;28;20052;-81
2022/05/14 02:22:43;;;;;;;31.52;8.10;;;11.80;99.90;;;;;;5033211;28;20418;-81
2022/05/14 02:25:10;;;;;;;29.48;7.57;;;11.80;99.90;;;;;;5023451;28;20053;-81
2022/05/14 02:27:36;;;;;;;31.08;6.82;;;13.20;99.90;;;;;;5022558;28;20076;-80
2022/05/14 02:30:02;;;;;;;28.30;7.35;;;12.50;99.90;;;;;;5021519;28;20119;-82
2022/05/14 02:32:28;;;;;;;37.35;7.68;;;11.80;99.90;;;;;;5029062;28;20048;-81
2022/05/14 02:34:55;;;;;;;37.30;8.68;;;11.50;99.90;;;;;;5021146;28;20037;-82
2022/05/14 02:37:23;;;;;;;35.80;7.40;;;11.60;99.90;;;;;;5040365;28;20385;-81
2022/05/14 02:39:50;;;;;;;27.30;7.90;;;11.60;99.90;;;;;;5021642;28;20045;-80
2022/05/14 02:42:16;;;;;;;33.38;8.52;;;11.20;99.90;;;;;;5038647;28;20080;-80
2022/05/14 02:44:42;;;;;;;34.13;9.07;;;11.60;99.90;;;;;;5028625;28;20038;-81
2022/05/14 02:47:07;;;;;;;36.88;8.50;;;11.50;99.90;;;;;;5038420;28;20123;-81
2022/05/14 02:49:33;;;;;;;29.25;7.85;;;11.50;99.90;;;;;;5023482;28;20434;-79
2022/05/14 02:51:59;;;;;;;29.85;8.40;;;11.50;99.90;;;;;;5043367;28;20543;-82
2022/05/14 02:54:25;;;;;;;28.45;7.85;;;11.50;99.90;;;;;;5005199;28;20045;-81
2022/05/14 02:56:51;;;;;;;32.33;9.63;;;11.50;99.90;;;;;;5042384;28;20086;-80
2022/05/14 02:59:17;;;;;;;34.50;9.68;;;11.50;99.90;;;;;;5048398;28;20484;-81
2022/05/14 03:01:49;;;;;;;28.80;8.05;;;11.40;99.90;;;;;;5021096;28;20497;-81
2022/05/14 03:04:16;;;;;;;36.85;8.95;;;11.40;99.90;;;;;;5020564;28;20417;-82
2022/05/14 03:06:42;;;;;;;36.70;8.95;;;11.40;99.90;;;;;;5023369;28;20041;-79
2022/05/14 03:09:07;;;;;;;40.58;9.23;;;11.30;99.90;;;;;;5032193;28;20045;-81
2022/05/14 03:11:33;;;;;;;34.55;9.68;;;11.30;99.90;;;;;;5046975;28;20124;-82
2022/05/14 03:13:59;;;;;;;27.85;8.52;;;11.30;99.90;;;;;;5016823;28;20041;-80
2022/05/14 03:16:24;;;;;;;43.88;9.65;;;11.40;99.90;;;;;;5023155;28;20412;-82
2022/05/14 03:18:50;;;;;;;31.67;9.02;;;11.30;99.90;;;;;;5038641;28;20049;-80
2022/05/14 03:21:15;;;;;;;37.60;9.25;;;11.30;99.90;;;;;;5019955;28;20049;-81
2022/05/14 03:23:41;;;;;;;34.80;9.00;;;11.20;99.90;;;;;;5023240;28;20110;-82
2022/05/14 03:26:07;;;;;;;36.17;8.90;;;11.20;99.90;;;;;;5040666;28;20449;-79
2022/05/14 03:28:36;;;;;;;33.53;7.95;;;11.20;99.90;;;;;;5021628;28;20049;-81
2022/05/14 03:31:02;;;;;;;31.65;8.50;;;11.20;99.90;;;;;;5038045;28;20080;-79
2022/05/14 03:33:27;;;;;;;33.67;8.32;;;11.20;99.90;;;;;;5038967;28;20500;-81
2022/05/14 03:35:53;;;;;;;33.50;7.43;;;11.20;99.90;;;;;;5022719;28;20107;-81
2022/05/14 03:38:18;;;;;;;40.13;8.43;;;11.20;99.90;;;;;;5041291;28;20591;-78
2022/05/14 03:40:45;;;;;;;35.30;9.88;;;12.20;99.90;;;;;;5045006;28;20045;-80
2022/05/14 03:43:10;;;;;;;33.05;7.80;;;11.20;99.90;;;;;;5009692;28;20409;-77
2022/05/14 03:45:36;;;;;;;42.53;9.43;;;11.20;99.90;;;;;;5029544;28;20080;-81
2022/05/14 03:48:01;;;;;;;26.58;9.18;;;11.20;99.90;;;;;;5037825;28;20134;-79
2022/05/14 03:50:27;;;;;;;34.70;10.45;;;11.10;99.90;;;;;;5012132;28;20080;-79
2022/05/14 03:52:53;;;;;;;30.77;8.95;;;11.10;99.90;;;;;;5020419;28;20421;-80
2022/05/14 03:55:18;;;;;;;47.03;9.70;;;11.10;99.90;;;;;;5019369;28;20481;-78
2022/05/14 03:57:44;;;;;;;34.75;9.10;;;10.90;99.90;;;;;;5026328;28;20389;-78
2022/05/14 04:00:11;;;;;;;36.78;9.65;;;11.10;99.90;;;;;;5040802;28;20049;-79
2022/05/14 04:02:37;;;;;;;41.55;9.00;;;11.10;99.90;;;;;;5027155;28;20071;-81
2022/05/14 04:05:03;;;;;;;36.72;9.55;;;11.10;99.90;;;;;;5025129;28;20493;-80
2022/05/14 04:07:30;;;;;;;44.33;10.55;;;11.10;99.90;;;;;;5046054;28;20139;-81
2022/05/14 04:09:57;;;;;;;45.10;10.10;;;11.10;99.90;;;;;;5036418;28;20037;-78
2022/05/14 04:12:22;;;;;;;39.10;10.98;;;12.70;99.90;;;;;;5037643;28;20059;-79
2022/05/14 04:14:48;;;;;;;44.80;11.07;;;11.10;99.90;;;;;;5027940;28;20489;-82
2022/05/14 04:17:14;;;;;;;37.42;9.15;;;11.10;99.90;;;;;;5036315;28;20045;-80
2022/05/14 04:19:39;;;;;;;47.38;10.40;;;11.10;99.90;;;;;;5044971;28;20401;-81
2022/05/14 04:22:05;;;;;;;44.00;10.05;;;11.10;99.90;;;;;;5039541;28;20059;-78
2022/05/14 04:24:32;;;;;;;43.58;10.15;;;11.10;99.90;;;;;;5022943;28;20044;-77
2022/05/14 04:26:58;;;;;;;41.97;11.07;;;11.10;99.90;;;;;;5039365;28;20079;-81
2022/05/14 04:29:23;;;;;;;34.38;9.45;;;11.20;99.90;;;;;;5022805;28;20052;-77
2022/05/14 04:31:49;;;;;;;34.20;10.15;;;11.20;99.90;;;;;;5037465;28;20092;-81
2022/05/14 04:34:15;;;;;;;37.85;11.35;;;11.20;99.90;;;;;;5024336;28;20036;-76
2022/05/14 04:36:40;;;;;;;37.60;9.70;;;11.30;99.90;;;;;;5028669;28;20080;-77
2022/05/14 04:39:09;;;;;;;46.58;10.80;;;11.20;99.90;;;;;;5035971;28;20121;-76
2022/05/14 04:41:35;;;;;;;39.47;10.38;;;11.10;99.90;;;;;;5010590;28;20144;-80
2022/05/14 04:44:02;;;;;;;38.65;9.77;;;11.20;99.90;;;;;;5018225;28;20378;-80
2022/05/14 04:46:28;;;;;;;38.92;10.02;;;11.20;99.90;;;;;;5036782;28;20523;-79
2022/05/14 04:48:53;;;;;;;40.75;9.52;;;12.00;99.90;;;;;;5014216;28;20069;-81
2022/05/14 04:51:19;;;;;;;37.35;9.85;;;11.20;99.90;;;;;;5021672;28;20498;-82
2022/05/14 04:53:45;;;;;;;38.13;9.00;;;11.30;99.90;;;;;;5028464;28;20060;-78
2022/05/14 04:56:11;;;;;;;32.65;9.48;;;11.30;99.90;;;;;;5007267;28;20052;-82
2022/05/14 04:58:36;;;;;;;42.17;9.30;;;11.30;99.90;;;;;;5020860;28;20041;-81
2022/05/14 05:01:02;;;;;;;36.83;8.68;;;11.40;99.90;;;;;;5018475;28;20048;-81
2022/05/14 05:03:28;;;;;;;30.30;8.25;;;11.40;99.90;;;;;;5019043;28;20052;-79
2022/05/14 05:05:56;;;;;;;37.58;8.68;;;11.40;99.90;;;;;;5025937;28;20120;-82
2022/05/14 05:08:24;;;;;;;37.88;8.95;;;11.40;99.90;;;;;;5018147;28;20396;-79
2022/05/14 05:10:51;;;;;;;34.50;9.02;;;11.50;99.90;;;;;;5020207;28;20056;-81
2022/05/14 05:13:23;;;;;;;36.03;10.50;;;11.50;99.90;;;;;;5035828;28;20423;-78
2022/05/14 05:15:49;;;;;;;39.17;9.57;;;11.50;99.90;;;;;;5013984;28;20049;-81
2022/05/14 05:18:16;;;;;;;41.88;8.25;;;11.60;99.90;;;;;;5026952;28;20438;-81
2022/05/14 05:20:43;;;;;;;40.40;9.18;;;11.20;99.90;;;;;;5042532;28;20243;-81
2022/05/14 05:23:13;;;;;;;31.75;8.25;;;11.50;99.90;;;;;;5040558;28;20037;-81
2022/05/14 05:25:39;;;;;;;39.35;9.43;;;11.70;99.90;;;;;;5022923;28;20087;-81
2022/05/14 05:28:05;;;;;;;48.28;9.80;;;11.70;99.90;;;;;;5043164;28;20037;-78
2022/05/14 05:30:31;;;;;;;40.13;9.07;;;11.70;99.90;;;;;;5034193;28;20048;-77
2022/05/14 05:32:57;;;;;;;41.28;9.82;;;11.80;99.90;;;;;;5039073;28;20037;-80
2022/05/14 05:35:22;;;;;;;27.20;8.48;;;13.20;99.90;;;;;;5005889;28;20550;-82
2022/05/14 05:37:48;;;;;;;37.33;9.50;;;13.40;99.90;;;;;;5042580;28;20037;-80
2022/05/14 05:40:15;;;;;;;36.47;8.75;;;11.90;99.90;;;;;;5028201;28;20034;-81
2022/05/14 05:42:42;;;;;;;37.30;9.57;;;12.20;99.90;;;;;;5006732;28;20532;-82
2022/05/14 05:45:08;;;;;;;34.72;9.35;;;10.90;99.90;;;;;;5024995;28;20049;-79
2022/05/14 05:47:34;;;;;;;32.17;8.18;;;12.00;99.90;;;;;;5009035;28;20063;-78
2022/05/14 05:49:59;;;;;;;34.63;9.90;;;12.00;99.90;;;;;;5006513;28;20544;-80
2022/05/14 05:52:25;;;;;;;33.75;8.32;;;13.10;99.90;;;;;;5006054;28;20092;-81
2022/05/14 05:57:37;;;;;;;39.20;9.73;;;12.10;99.90;;;;;;5025655;28;20071;-78
2022/05/14 06:00:13;;;;;;;37.78;8.95;;;12.20;99.90;;;;;;5025255;28;20068;-81
2022/05/14 06:02:39;;;;;;;33.70;8.98;;;12.20;99.90;;;;;;5039055;28;20049;-78
2022/05/14 06:05:05;;;;;;;37.05;8.63;;;12.20;99.90;;;;;;5009123;28;20126;-81
2022/05/14 06:07:32;;;;;;;37.28;9.32;;;12.20;99.90;;;;;;5026053;28;20118;-81
2022/05/14 06:09:58;;;;;;;29.73;9.90;;;12.30;99.90;;;;;;5022270;28;20445;-80
2022/05/14 06:12:23;;;;;;;36.05;10.65;;;12.10;99.90;;;;;;5023558;28;20045;-81
2022/05/14 06:14:49;;;;;;;35.90;9.25;;;12.30;99.90;;;;;;5007230;28;20060;-81
2022/05/14 06:17:15;;;;;;;33.20;8.30;;;12.30;99.90;;;;;;5006670;28;20141;-81
2022/05/14 06:19:42;;;;;;;27.35;8.85;;;12.40;99.90;;;;;;5004237;28;20129;-80
2022/05/14 06:22:08;;;;;;;30.75;7.82;;;12.30;99.90;;;;;;5002305;28;20057;-81
2022/05/14 06:24:36;;;;;;;34.40;8.20;;;12.50;99.90;;;;;;5002910;28;20042;-81
2022/05/14 06:27:02;;;;;;;31.23;8.30;;;12.70;99.90;;;;;;4997878;28;20391;-81
2022/05/14 06:29:32;;;;;;;28.83;7.35;;;12.50;99.90;;;;;;5004596;28;20053;-79
2022/05/14 06:31:58;;;;;;;32.33;8.88;;;12.60;99.90;;;;;;5000702;28;20092;-81
2022/05/14 06:34:25;;;;;;;31.33;8.00;;;12.50;99.90;;;;;;5020352;28;20052;-82
2022/05/14 06:36:51;;;;;;;26.30;6.93;;;12.60;99.90;;;;;;5017610;28;20045;-81
2022/05/14 06:39:17;;;;;;;33.85;6.55;;;12.70;99.90;;;;;;5006660;28;20061;-81
2022/05/14 06:41:43;;;;;;;36.45;8.35;;;12.90;99.90;;;;;;4998735;28;20120;-81
2022/05/14 06:44:09;;;;;;;33.63;7.10;;;12.90;99.90;;;;;;5005055;28;20674;-81
2022/05/14 06:46:36;;;;;;;31.25;6.55;;;13.00;99.90;;;;;;4998176;28;20046;-82
2022/05/14 06:49:03;;;;;;;28.73;7.45;;;13.10;99.90;;;;;;5005878;28;20141;-80
2022/05/14 06:51:30;;;;;;;28.58;5.63;;;13.10;99.90;;;;;;4981971;28;20045;-81
2022/05/14 06:54:05;;;;;;;24.60;6.50;;;13.30;99.90;;;;;;5000927;28;20046;-81
2022/05/14 06:56:33;;;;;;;34.42;10.93;;;13.40;99.90;;;;;;5003251;28;20046;-83
2022/05/14 06:59:00;;;;;;;23.08;5.45;;;13.40;99.90;;;;;;5015559;28;20061;-81
2022/05/14 07:01:27;;;;;;;26.05;6.22;;;13.60;99.90;;;;;;4998468;28;20050;-81
2022/05/14 07:06:40;;;;;;;29.33;6.68;;;13.60;99.90;;;;;;5006658;28;20049;-83
2022/05/14 07:09:12;;;;;;;24.80;5.60;;;13.60;99.90;;;;;;4990566;28;20081;-80
2022/05/14 07:11:41;;;;;;;27.67;5.65;;;13.70;99.90;;;;;;5005681;28;20136;-83
2022/05/14 07:14:08;;;;;;;21.80;5.35;;;14.90;99.90;;;;;;5031295;28;20422;-83
2022/05/14 07:16:34;;;;;;;29.35;4.97;;;13.80;99.90;;;;;;5021632;28;20053;-83
2022/05/14 07:19:00;;;;;;;22.10;4.88;;;13.90;99.90;;;;;;5011547;28;20048;-82
2022/05/14 07:21:26;;;;;;;26.10;4.75;;;13.00;99.90;;;;;;5021116;28;20056;-80
2022/05/14 07:23:53;;;;;;;30.80;7.43;;;14.10;99.90;;;;;;5029142;28;20091;-80
2022/05/14 07:26:19;;;;;;;31.25;10.57;;;15.50;99.90;;;;;;5037372;28;20073;-80
2022/05/14 07:28:44;;;;;;;25.45;5.40;;;14.10;99.90;;;;;;5038446;28;20150;-83
2022/05/14 07:31:10;;;;;;;27.00;6.38;;;14.10;99.90;;;;;;5047068;28;20037;-81
2022/05/14 07:33:36;;;;;;;27.73;6.07;;;14.20;99.90;;;;;;5041117;28;20072;-84
2022/05/14 07:36:05;;;;;;;20.50;4.90;;;14.30;99.90;;;;;;5023248;28;20129;-82
2022/05/14 07:38:34;;;;;;;22.05;5.57;;;14.30;99.90;;;;;;5041566;28;20041;-82
2022/05/14 07:41:01;;;;;;;21.17;4.88;;;14.40;99.90;;;;;;5039577;28;20045;-82
2022/05/14 07:43:30;;;;;;;21.00;4.72;;;14.40;99.90;;;;;;5020498;28;20100;-81
2022/05/14 07:46:04;;;;;;;31.15;5.22;;;14.40;99.90;;;;;;5003711;28;20047;-81
2022/05/14 07:48:35;;;;;;;;;;;14.50;99.90;;;;;;5023854;28;20033;-82
2022/05/14 07:51:03;;;;;;;26.15;5.80;;;14.50;99.90;;;;;;5022153;28;19917;-82
2022/05/14 07:53:30;;;;;;;20.35;4.93;;;15.50;99.90;;;;;;5020388;28;20045;-80
2022/05/14 07:56:00;;;;;;;27.00;6.22;;;14.60;99.90;;;;;;5019372;28;20054;-81
2022/05/14 07:58:26;;;;;;;26.02;5.53;;;14.70;99.90;;;;;;5031809;28;20103;-83
2022/05/14 08:00:52;;;;;;;19.63;4.78;;;14.80;99.90;;;;;;5023011;28;20049;-79
2022/05/14 08:03:23;;;;;;;25.83;5.25;;;14.90;99.90;;;;;;5040316;28;20044;-84
2022/05/14 08:05:49;;;;;;;22.85;4.82;;;14.90;99.90;;;;;;5023332;28;20080;-83
2022/05/14 08:08:15;;;;;;;27.00;6.18;;;15.00;99.90;;;;;;5019536;28;20955;-82
2022/05/14 08:10:40;;;;;;;31.67;5.35;;;15.00;99.90;;;;;;5019542;28;20051;-83
2022/05/14 08:13:06;;;;;;;26.45;5.35;;;15.10;99.90;;;;;;5023950;28;20067;-83
2022/05/14 08:15:32;;;;;;;26.30;5.10;;;15.40;99.90;;;;;;5015465;28;20046;-83
2022/05/14 08:17:58;;;;;;;24.00;4.63;;;15.10;99.90;;;;;;5016546;28;20058;-80
2022/05/14 08:20:24;;;;;;;20.10;5.18;;;15.20;99.90;;;;;;5012415;28;20046;-83
2022/05/14 08:25:34;;;;;;;24.20;5.57;;;15.30;99.90;;;;;;5018903;28;20049;-82
2022/05/14 08:28:00;;;;;;;27.42;5.20;;;15.30;99.90;;;;;;5006886;28;20041;-82
2022/05/14 08:30:32;;;;;;;21.38;5.63;;;15.40;99.90;;;;;;5016661;28;20052;-83
2022/05/14 08:32:58;;;;;;;20.27;5.05;;;15.00;99.90;;;;;;5023510;28;20046;-81
2022/05/14 08:35:25;;;;;;;21.67;6.07;;;15.60;99.90;;;;;;5020193;28;20110;-83
2022/05/14 08:37:53;;;;;;;24.33;5.47;;;15.70;99.90;;;;;;5002675;28;20541;-82
2022/05/14 08:40:25;;;;;;;25.52;5.22;;;15.70;99.90;;;;;;5017902;28;20091;-82
2022/05/14 08:42:54;;;;;;;20.58;5.43;;;15.70;99.90;;;;;;5017359;28;20045;-81
2022/05/14 08:45:22;;;;;;;26.38;5.20;;;15.80;99.90;;;;;;5017257;28;20048;-82
2022/05/14 08:47:58;;;;;;;18.95;4.10;;;15.80;99.90;;;;;;5003181;28;20046;-82
2022/05/14 08:50:32;;;;;;;24.00;5.55;;;15.80;99.90;;;;;;5015027;28;20041;-81
2022/05/14 08:53:02;;;;;;;22.95;4.85;;;15.90;99.90;;;;;;5015393;28;20045;-79
2022/05/14 08:55:39;;;;;;;23.33;4.85;;;16.00;99.90;;;;;;5017164;28;20073;-79
2022/05/14 08:58:10;;;;;;;27.30;5.53;;;16.00;99.90;;;;;;5024290;28;20048;-80
2022/05/14 09:00:36;;;;;;;21.83;4.95;;;16.00;99.90;;;;;;5037649;28;20034;-80
2022/05/14 09:03:02;;;;;;;22.65;5.72;;;16.00;99.90;;;;;;5002187;28;20078;-82
2022/05/14 09:05:31;;;;;;;25.65;5.50;;;16.10;99.90;;;;;;5015057;28;20052;-82
2022/05/14 09:08:01;;;;;;;25.23;8.23;;;16.20;99.90;;;;;;5016954;28;20053;-83
2022/05/14 09:10:33;;;;;;;21.33;4.93;;;16.00;99.90;;;;;;5007941;28;20054;-82
2022/05/14 09:13:18;;;;;;;21.00;4.82;;;16.30;99.90;;;;;;5022304;28;20065;-82
2022/05/14 09:15:51;;;;;;;26.52;5.53;;;16.40;99.90;;;;;;5015447;28;20054;-82
2022/05/14 09:18:30;;;;;;;23.92;5.10;;;16.40;99.90;;;;;;5025325;28;20063;-81
2022/05/14 09:21:15;;;;;;;24.25;5.07;;;16.30;99.90;;;;;;5018962;28;20119;-78
2022/05/14 09:23:44;;;;;;;24.73;5.55;;;16.50;99.90;;;;;;5036963;28;20110;-82
2022/05/14 09:26:31;;;;;;;25.63;5.20;;;16.60;99.90;;;;;;5019001;28;20400;-84
2022/05/14 09:29:17;;;;;;;19.88;5.55;;;16.60;99.90;;;;;;5017317;28;20042;-83
2022/05/14 09:32:01;;;;;;;25.13;5.03;;;16.60;99.90;;;;;;5004042;28;20034;-74
2022/05/14 09:34:28;;;;;;;28.55;5.20;;;16.00;99.90;;;;;;5004628;28;20080;-70
2022/05/14 09:37:11;;;;;;;30.98;5.68;;;16.70;99.90;;;;;;5018364;28;20102;-71
2022/05/14 09:39:38;;;;;;;27.58;5.50;;;16.70;99.90;;;;;;5016317;28;20049;-75
2022/05/14 09:42:04;;;;;;;23.63;5.10;;;16.80;99.90;;;;;;5007305;28;20056;-74
2022/05/14 09:44:42;;;;;;;20.63;5.25;;;16.90;99.90;;;;;;4999332;28;20056;-75
2022/05/14 09:47:10;;;;;;;23.38;5.28;;;16.80;99.90;;;;;;5016694;28;20037;-72
2022/05/14 09:49:41;;;;;;;19.80;4.45;;;16.80;99.90;;;;;;5014776;28;20042;-73
2022/05/14 09:52:13;;;;;;;18.60;4.47;;;16.90;99.90;;;;;;5011864;28;20102;-73
2022/05/14 09:54:47;;;;;;;24.20;5.82;;;17.60;99.90;;;;;;5014847;28;20045;-71
2022/05/14 09:57:46;;;;;;;20.77;4.60;;;17.10;99.90;;;;;;5016498;28;20046;-76
2022/05/14 10:00:31;;;;;;;19.55;4.60;;;17.20;99.90;;;;;;5017153;28;20444;-81
2022/05/14 10:03:34;;;;;;;20.65;5.07;;;17.30;99.90;;;;;;5015843;28;20057;-74
2022/05/14 10:06:06;;;;;;;19.30;4.63;;;17.20;99.90;;;;;;5021920;28;20523;-73
2022/05/14 10:09:02;;;;;;;17.67;4.20;;;17.20;99.90;;;;;;5026628;28;20040;-73
2022/05/14 10:11:42;;;;;;;44.38;5.90;;;17.20;99.90;;;;;;5022587;28;20037;-73
2022/05/14 10:14:08;;;;;;;22.58;5.00;;;17.40;99.90;;;;;;5021490;28;20108;-80
2022/05/14 10:16:46;;;;;;;19.98;5.20;;;17.50;99.90;;;;;;5028384;28;20473;-80
2022/05/14 10:19:23;;;;;;;25.27;5.82;;;17.50;99.90;;;;;;5010956;28;20504;-71
2022/05/14 10:21:49;;;;;;;18.80;5.47;;;17.50;99.90;;;;;;5023929;28;20045;-72
2022/05/14 10:27:45;;;;;;;20.88;5.35;;;17.60;99.90;;;;;;5025025;28;20179;-72
2022/05/14 10:30:17;;;;;;;20.38;5.55;;;17.60;99.90;;;;;;5041494;28;20069;-74
2022/05/14 10:32:54;;;;;;;25.23;4.80;;;17.50;99.90;;;;;;5023760;28;20513;-76
2022/05/14 10:35:27;;;;;;;31.05;6.72;;;17.50;99.90;;;;;;5042229;28;20132;-80
2022/05/14 10:37:56;;;;;;;18.00;4.50;;;17.50;99.90;;;;;;5025573;28;20052;-77
2022/05/14 10:40:48;;;;;;;23.15;5.25;;;17.50;99.90;;;;;;5026066;28;20292;-75
2022/05/14 10:43:22;;;;;;;22.13;5.03;;;17.50;99.90;;;;;;5022806;28;20056;-78
2022/05/14 10:45:51;;;;;;;27.50;6.13;;;17.60;99.90;;;;;;5040597;28;20054;-77
2022/05/14 10:48:42;;;;;;;26.25;5.25;;;17.60;99.90;;;;;;5009021;28;20047;-85
2022/05/14 10:51:11;;;;;;;23.52;5.22;;;17.70;99.90;;;;;;5027990;28;20139;-87
2022/05/14 10:53:40;;;;;;;21.50;5.35;;;17.80;99.90;;;;;;5028424;28;20050;-71
2022/05/14 10:56:16;;;;;;;20.48;5.38;;;17.80;99.90;;;;;;5027940;28;20045;-71
2022/05/14 10:58:56;;;;;;;21.75;6.22;;;17.80;99.90;;;;;;5025952;28;20524;-71
2022/05/14 11:01:52;;;;;;;31.45;8.90;;;17.80;99.90;;;;;;5026145;28;20041;-71
2022/05/14 11:04:38;;;;;;;25.85;5.15;;;17.80;99.90;;;;;;5039449;28;20444;-71
2022/05/14 11:07:06;;;;;;;23.13;4.97;;;18.00;99.90;;;;;;5042564;28;20045;-72
2022/05/14 11:09:38;;;;;;;22.83;6.88;;;18.20;99.90;;;;;;5025312;28;20397;-71
2022/05/14 11:12:30;;;;;;;18.50;5.30;;;18.40;99.90;;;;;;5024277;28;20061;-71
2022/05/14 11:15:00;;;;;;;22.92;4.57;;;18.50;99.90;;;;;;5022544;28;20088;-71
2022/05/14 11:17:33;;;;;;;21.75;5.18;;;18.50;99.90;;;;;;5007217;28;20504;-71
2022/05/14 11:20:02;;;;;;;23.50;4.75;;;18.50;99.90;;;;;;5022355;28;20049;-73
2022/05/14 11:22:36;;;;;;;20.13;4.65;;;18.50;99.90;;;;;;5024202;28;20044;-73
2022/05/14 11:25:14;;;;;;;20.55;4.75;;;18.50;99.90;;;;;;5039361;28;20103;-74
2022/05/14 11:27:41;;;;;;;70.88;7.05;;;18.70;99.90;;;;;;5021194;28;20046;-74
2022/05/14 11:30:09;;;;;;;24.63;6.97;;;19.00;99.90;;;;;;5024042;28;20041;-74
2022/05/14 11:32:49;;;;;;;26.20;7.03;;;19.10;99.90;;;;;;5037317;28;20049;-73
2022/05/14 11:35:17;;;;;;;24.70;5.05;;;19.10;99.90;;;;;;5023852;28;20392;-73
2022/05/14 11:37:47;;;;;;;20.60;4.82;;;19.10;99.50;;;;;;5027126;28;20516;-74
2022/05/14 11:40:19;;;;;;;21.90;4.75;;;19.60;98.90;;;;;;5042033;28;20568;-73
2022/05/14 11:42:48;;;;;;;26.35;6.32;;;19.20;97.90;;;;;;5028044;28;20311;-73
2022/05/14 11:45:24;;;;;;;22.30;4.70;;;19.20;98.10;;;;;;5024685;28;20041;-73
2022/05/14 11:48:04;;;;;;;24.35;4.82;;;19.20;97.60;;;;;;5026342;28;20037;-73
2022/05/14 11:50:36;;;;;;;19.55;5.32;;;19.80;98.20;;;;;;5024555;28;20042;-76
2022/05/14 11:53:13;;;;;;;19.70;4.53;;;19.20;97.50;;;;;;5008463;28;20081;-76
2022/05/14 11:55:48;;;;;;;19.88;4.30;;;19.40;97.30;;;;;;5025418;28;20080;-76
2022/05/14 11:58:25;;;;;;;15.75;4.80;;;20.10;97.70;;;;;;5023588;28;20045;-77
2022/05/14 12:00:52;;;;;;;18.75;4.63;;;19.90;96.80;;;;;;5041149;28;20042;-73
2022/05/14 12:03:23;;;;;;;20.58;5.50;;;19.60;96.30;;;;;;5026728;28;20507;-74
2022/05/14 12:05:55;;;;;;;21.33;5.82;;;19.80;95.10;;;;;;5023839;28;20492;-74
2022/05/14 12:08:33;;;;;;;24.48;5.72;;;20.00;93.90;;;;;;5022917;28;20034;-80
2022/05/14 12:11:24;;;;;;;31.00;4.97;;;19.90;93.00;;;;;;5041612;28;20053;-80
2022/05/14 12:14:04;;;;;;;26.10;5.20;;;19.80;93.00;;;;;;5016438;28;20057;-76
2022/05/14 12:16:40;;;;;;;21.05;4.70;;;19.90;93.30;;;;;;5005590;28;20049;-80
2022/05/14 12:19:14;;;;;;;19.90;4.68;;;19.60;92.30;;;;;;5024467;28;20049;-80
2022/05/14 12:21:41;;;;;;;22.75;5.50;;;19.40;92.20;;;;;;5003713;28;20172;-76
2022/05/14 12:24:18;;;;;;;56.63;8.30;;;19.30;92.90;;;;;;5006859;28;20054;-77
2022/05/14 12:26:44;;;;;;;19.05;5.40;;;19.90;94.40;;;;;;5019972;28;20611;-78
2022/05/14 12:29:36;;;;;;;21.83;5.10;;;19.20;94.30;;;;;;4999470;28;20542;-76
2022/05/14 12:34:52;;;;;;;22.63;4.88;;;19.10;94.90;;;;;;4998211;28;20081;-76
2022/05/14 12:37:24;;;;;;;20.00;5.22;;;19.10;94.80;;;;;;5008522;28;20057;-72
2022/05/14 12:39:53;;;;;;;22.30;5.15;;;19.00;94.60;;;;;;5001917;28;20046;-80
2022/05/14 12:42:30;;;;;;;24.75;5.68;;;19.40;95.30;;;;;;4993326;28;20065;-81
2022/05/14 12:44:58;;;;;;;25.75;5.82;;;18.90;95.60;;;;;;4999408;28;20060;-80
2022/05/14 12:47:25;;;;;;;29.08;6.50;;;18.90;95.50;;;;;;5004783;28;20121;-81
2022/05/14 12:49:51;;;;;;;23.92;5.40;;;18.90;94.30;;;;;;4971345;28;20078;-82
2022/05/14 12:52:21;;;;;;;26.85;4.72;;;19.50;94.70;;;;;;5002651;28;20080;-83
2022/05/14 12:54:53;;;;;;;20.65;4.90;;;18.90;95.00;;;;;;5000079;28;20184;-83
2022/05/14 12:57:20;;;;;;;20.90;5.00;;;18.90;94.60;;;;;;5009299;28;20144;-81
2022/05/14 12:59:45;;;;;;;19.88;4.55;;;18.90;94.10;;;;;;4999961;28;20057;-81
2022/05/14 13:02:29;;;;;;;26.02;5.45;;;18.80;94.40;;;;;;5005663;28;20042;-81
2022/05/14 13:05:01;;;;;;;26.67;5.80;;;18.80;93.90;;;;;;4995496;28;20046;-82
2022/05/14 13:07:28;;;;;;;24.17;8.20;;;18.70;94.40;;;;;;4995873;28;20053;-81
2022/05/14 13:09:56;;;;;;;20.80;5.03;;;18.70;94.40;;;;;;4996969;28;20053;-79
2022/05/14 13:12:25;;;;;;;27.05;5.90;;;18.80;94.70;;;;;;4998384;28;20046;-74